sensor_id;sensor_type;location;lat;lon;timestamp;P1;durP1;ratioP1;P2;durP2;ratioP2
32146;SDS011;32190;49.112;8.598;2022-11-20T00:03:26;1.60;;;1.50;;
32146;SDS011;32190;49.112;8.598;2022-11-20T00:09:17;1.42;;;1.30;;
32146;SDS011;32190;49.112;8.598;2022-11-20T00:15:08;1.67;;;1.58;;
32146;SDS011;32190;49.112;8.598;2022-11-20T00:21:03;1.60;;;1.50;;
32146;SDS011;32190;49.112;8.598;2022-11-20T00:26:56;2.25;;;1.58;;
32146;SDS011;32190;49.112;8.598;2022-11-20T00:32:46;2.25;;;2.05;;
32146;SDS011;32190;49.112;8.598;2022-11-20T01:08:39;2.30;;;2.10;;
32146;SDS011;32190;49.112;8.598;2022-11-20T01:14:33;2.33;;;1.83;;
32146;SDS011;32190;49.112;8.598;2022-11-20T01:20:23;2.58;;;2.30;;
32146;SDS011;32190;49.112;8.598;2022-11-20T01:26:16;2.72;;;2.53;;
32146;SDS011;32190;49.112;8.598;2022-11-20T01:32:16;2.25;;;2.05;;
32146;SDS011;32190;49.112;8.598;2022-11-20T01:38:07;2.47;;;2.28;;
32146;SDS011;32190;49.112;8.598;2022-11-20T01:43:58;3.42;;;2.40;;
32146;SDS011;32190;49.112;8.598;2022-11-20T01:49:54;2.38;;;2.17;;
32146;SDS011;32190;49.112;8.598;2022-11-20T01:55:49;2.88;;;2.00;;
32146;SDS011;32190;49.112;8.598;2022-11-20T02:01:44;2.45;;;2.17;;
32146;SDS011;32190;49.112;8.598;2022-11-20T02:07:35;2.53;;;2.33;;
32146;SDS011;32190;49.112;8.598;2022-11-20T02:13:27;2.60;;;2.20;;
32146;SDS011;32190;49.112;8.598;2022-11-20T02:19:33;2.67;;;2.47;;
32146;SDS011;32190;49.112;8.598;2022-11-20T02:25:24;2.20;;;2.05;;
32146;SDS011;32190;49.112;8.598;2022-11-20T02:31:16;1.90;;;1.67;;
32146;SDS011;32190;49.112;8.598;2022-11-20T02:37:07;2.17;;;2.00;;
32146;SDS011;32190;49.112;8.598;2022-11-20T02:42:58;2.08;;;1.95;;
32146;SDS011;32190;49.112;8.598;2022-11-20T02:48:48;2.60;;;1.95;;
32146;SDS011;32190;49.112;8.598;2022-11-20T02:54:39;2.50;;;2.00;;
32146;SDS011;32190;49.112;8.598;2022-11-20T03:00:29;2.05;;;1.95;;
32146;SDS011;32190;49.112;8.598;2022-11-20T03:13:16;2.00;;;1.85;;
32146;SDS011;32190;49.112;8.598;2022-11-20T03:19:32;1.70;;;1.60;;
32146;SDS011;32190;49.112;8.598;2022-11-20T03:25:27;1.92;;;1.75;;
32146;SDS011;32190;49.112;8.598;2022-11-20T03:32:00;2.00;;;1.55;;
32146;SDS011;32190;49.112;8.598;2022-11-20T03:44:58;2.08;;;1.65;;
32146;SDS011;32190;49.112;8.598;2022-11-20T03:50:49;1.95;;;1.77;;
32146;SDS011;32190;49.112;8.598;2022-11-20T03:56:59;2.13;;;1.88;;
32146;SDS011;32190;49.112;8.598;2022-11-20T04:09:34;1.60;;;1.50;;
32146;SDS011;32190;49.112;8.598;2022-11-20T04:15:45;2.78;;;1.98;;
32146;SDS011;32190;49.112;8.598;2022-11-20T04:21:38;2.28;;;1.60;;
32146;SDS011;32190;49.112;8.598;2022-11-20T04:27:32;1.55;;;1.45;;
32146;SDS011;32190;49.112;8.598;2022-11-20T04:33:28;1.80;;;1.70;;
32146;SDS011;32190;49.112;8.598;2022-11-20T04:39:18;1.38;;;1.27;;
32146;SDS011;32190;49.112;8.598;2022-11-20T04:45:09;1.38;;;1.27;;
32146;SDS011;32190;49.112;8.598;2022-11-20T04:51:02;1.65;;;1.50;;
32146;SDS011;32190;49.112;8.598;2022-11-20T04:56:54;1.70;;;1.58;;
32146;SDS011;32190;49.112;8.598;2022-11-20T05:02:44;1.20;;;1.13;;
32146;SDS011;32190;49.112;8.598;2022-11-20T05:08:41;1.63;;;1.52;;
32146;SDS011;32190;49.112;8.598;2022-11-20T05:14:35;1.40;;;1.30;;
32146;SDS011;32190;49.112;8.598;2022-11-20T05:20:26;2.05;;;1.42;;
32146;SDS011;32190;49.112;8.598;2022-11-20T05:26:27;1.20;;;1.10;;
32146;SDS011;32190;49.112;8.598;2022-11-20T05:32:17;1.90;;;1.40;;
32146;SDS011;32190;49.112;8.598;2022-11-20T05:38:15;1.52;;;1.42;;
32146;SDS011;32190;49.112;8.598;2022-11-20T05:44:06;1.40;;;1.20;;
32146;SDS011;32190;49.112;8.598;2022-11-20T05:56:29;1.58;;;1.20;;
32146;SDS011;32190;49.112;8.598;2022-11-20T06:02:34;1.60;;;1.20;;
32146;SDS011;32190;49.112;8.598;2022-11-20T06:08:57;1.20;;;1.10;;
32146;SDS011;32190;49.112;8.598;2022-11-20T06:15:21;3.38;;;1.20;;
32146;SDS011;32190;49.112;8.598;2022-11-20T06:21:16;1.10;;;1.00;;
32146;SDS011;32190;49.112;8.598;2022-11-20T06:27:08;1.40;;;1.30;;
32146;SDS011;32190;49.112;8.598;2022-11-20T06:39:33;1.15;;;1.02;;
32146;SDS011;32190;49.112;8.598;2022-11-20T06:45:24;0.95;;;0.95;;
32146;SDS011;32190;49.112;8.598;2022-11-20T06:51:15;1.42;;;0.80;;
32146;SDS011;32190;49.112;8.598;2022-11-20T06:57:05;1.15;;;1.05;;
32146;SDS011;32190;49.112;8.598;2022-11-20T07:02:56;0.95;;;0.95;;
32146;SDS011;32190;49.112;8.598;2022-11-20T07:08:46;0.90;;;0.90;;
32146;SDS011;32190;49.112;8.598;2022-11-20T07:14:54;1.10;;;1.10;;
32146;SDS011;32190;49.112;8.598;2022-11-20T07:20:44;2.15;;;0.90;;
32146;SDS011;32190;49.112;8.598;2022-11-20T07:26:35;1.63;;;1.05;;
32146;SDS011;32190;49.112;8.598;2022-11-20T07:32:26;0.70;;;0.70;;
32146;SDS011;32190;49.112;8.598;2022-11-20T07:38:16;2.05;;;1.17;;
32146;SDS011;32190;49.112;8.598;2022-11-20T07:44:07;1.85;;;0.82;;
32146;SDS011;32190;49.112;8.598;2022-11-20T07:49:57;1.40;;;1.00;;
32146;SDS011;32190;49.112;8.598;2022-11-20T07:55:48;1.92;;;0.80;;
32146;SDS011;32190;49.112;8.598;2022-11-20T08:01:39;0.68;;;0.68;;
32146;SDS011;32190;49.112;8.598;2022-11-20T08:07:34;0.80;;;0.80;;
32146;SDS011;32190;49.112;8.598;2022-11-20T08:13:26;2.17;;;0.73;;
32146;SDS011;32190;49.112;8.598;2022-11-20T08:19:35;1.77;;;0.93;;
32146;SDS011;32190;49.112;8.598;2022-11-20T08:25:26;0.80;;;0.80;;
32146;SDS011;32190;49.112;8.598;2022-11-20T08:31:17;1.08;;;0.90;;
32146;SDS011;32190;49.112;8.598;2022-11-20T08:37:08;0.90;;;0.90;;
32146;SDS011;32190;49.112;8.598;2022-11-20T08:43:07;0.77;;;0.77;;
32146;SDS011;32190;49.112;8.598;2022-11-20T09:15:22;1.30;;;1.20;;
32146;SDS011;32190;49.112;8.598;2022-11-20T09:21:20;1.05;;;1.05;;
32146;SDS011;32190;49.112;8.598;2022-11-20T09:33:04;1.48;;;1.13;;
32146;SDS011;32190;49.112;8.598;2022-11-20T09:57:00;0.98;;;0.88;;
32146;SDS011;32190;49.112;8.598;2022-11-20T10:08:54;0.80;;;0.80;;
32146;SDS011;32190;49.112;8.598;2022-11-20T11:03:36;1.92;;;1.48;;
32146;SDS011;32190;49.112;8.598;2022-11-20T11:09:31;1.50;;;1.27;;
32146;SDS011;32190;49.112;8.598;2022-11-20T11:21:24;1.20;;;1.02;;
32146;SDS011;32190;49.112;8.598;2022-11-20T11:27:16;2.00;;;1.30;;
32146;SDS011;32190;49.112;8.598;2022-11-20T11:33:26;0.85;;;0.85;;
32146;SDS011;32190;49.112;8.598;2022-11-20T11:39:18;1.65;;;1.00;;
32146;SDS011;32190;49.112;8.598;2022-11-20T11:45:11;3.15;;;1.35;;
32146;SDS011;32190;49.112;8.598;2022-11-20T11:51:07;1.60;;;1.23;;
32146;SDS011;32190;49.112;8.598;2022-11-20T11:57:00;1.35;;;1.08;;
32146;SDS011;32190;49.112;8.598;2022-11-20T12:09:27;0.93;;;0.73;;
32146;SDS011;32190;49.112;8.598;2022-11-20T12:15:31;1.27;;;0.60;;
32146;SDS011;32190;49.112;8.598;2022-11-20T12:27:33;0.60;;;0.60;;
32146;SDS011;32190;49.112;8.598;2022-11-20T12:33:42;0.70;;;0.70;;
32146;SDS011;32190;49.112;8.598;2022-11-20T13:09:52;1.35;;;0.60;;
32146;SDS011;32190;49.112;8.598;2022-11-20T13:16:06;0.73;;;0.68;;
32146;SDS011;32190;49.112;8.598;2022-11-20T13:22:00;0.75;;;0.60;;
32146;SDS011;32190;49.112;8.598;2022-11-20T13:27:54;2.28;;;0.50;;
32146;SDS011;32190;49.112;8.598;2022-11-20T13:33:49;0.73;;;0.50;;
32146;SDS011;32190;49.112;8.598;2022-11-20T13:39:44;1.00;;;0.60;;
32146;SDS011;32190;49.112;8.598;2022-11-20T13:45:38;2.90;;;0.57;;
32146;SDS011;32190;49.112;8.598;2022-11-20T13:51:37;0.50;;;0.50;;
32146;SDS011;32190;49.112;8.598;2022-11-20T14:03:48;0.95;;;0.40;;
32146;SDS011;32190;49.112;8.598;2022-11-20T14:09:48;1.83;;;0.45;;
32146;SDS011;32190;49.112;8.598;2022-11-20T14:15:47;0.75;;;0.50;;
32146;SDS011;32190;49.112;8.598;2022-11-20T14:27:38;1.52;;;0.52;;
32146;SDS011;32190;49.112;8.598;2022-11-20T14:33:31;0.30;;;0.30;;
32146;SDS011;32190;49.112;8.598;2022-11-20T14:39:25;0.52;;;0.40;;
32146;SDS011;32190;49.112;8.598;2022-11-20T14:45:25;0.43;;;0.43;;
32146;SDS011;32190;49.112;8.598;2022-11-20T14:51:27;1.20;;;0.40;;
32146;SDS011;32190;49.112;8.598;2022-11-20T15:27:29;0.40;;;0.40;;
32146;SDS011;32190;49.112;8.598;2022-11-20T15:33:20;0.40;;;0.40;;
32146;SDS011;32190;49.112;8.598;2022-11-20T15:39:13;0.82;;;0.50;;
32146;SDS011;32190;49.112;8.598;2022-11-20T15:45:04;0.75;;;0.40;;
32146;SDS011;32190;49.112;8.598;2022-11-20T15:57:01;1.08;;;0.60;;
32146;SDS011;32190;49.112;8.598;2022-11-20T16:02:52;1.02;;;0.50;;
32146;SDS011;32190;49.112;8.598;2022-11-20T16:08:46;0.73;;;0.35;;
32146;SDS011;32190;49.112;8.598;2022-11-20T16:14:37;0.68;;;0.68;;
32146;SDS011;32190;49.112;8.598;2022-11-20T16:20:47;0.38;;;0.30;;
32146;SDS011;32190;49.112;8.598;2022-11-20T16:32:35;0.70;;;0.50;;
32146;SDS011;32190;49.112;8.598;2022-11-20T16:38:25;0.32;;;0.32;;
32146;SDS011;32190;49.112;8.598;2022-11-20T16:44:16;0.50;;;0.50;;
32146;SDS011;32190;49.112;8.598;2022-11-20T16:50:06;0.40;;;0.40;;
32146;SDS011;32190;49.112;8.598;2022-11-20T16:56:10;0.82;;;0.82;;
32146;SDS011;32190;49.112;8.598;2022-11-20T17:02:00;0.73;;;0.52;;
32146;SDS011;32190;49.112;8.598;2022-11-20T17:07:51;0.50;;;0.50;;
32146;SDS011;32190;49.112;8.598;2022-11-20T17:13:41;0.50;;;0.47;;
32146;SDS011;32190;49.112;8.598;2022-11-20T17:19:32;1.02;;;0.40;;
32146;SDS011;32190;49.112;8.598;2022-11-20T17:55:30;0.95;;;0.60;;
32146;SDS011;32190;49.112;8.598;2022-11-20T18:01:41;0.50;;;0.50;;
32146;SDS011;32190;49.112;8.598;2022-11-20T18:07:32;0.88;;;0.70;;
32146;SDS011;32190;49.112;8.598;2022-11-20T18:13:30;1.27;;;0.50;;
32146;SDS011;32190;49.112;8.598;2022-11-20T18:19:49;0.45;;;0.45;;
32146;SDS011;32190;49.112;8.598;2022-11-20T18:25:43;0.57;;;0.50;;
32146;SDS011;32190;49.112;8.598;2022-11-20T18:31:42;0.52;;;0.52;;
32146;SDS011;32190;49.112;8.598;2022-11-20T18:37:33;0.60;;;0.60;;
32146;SDS011;32190;49.112;8.598;2022-11-20T18:43:24;1.55;;;0.63;;
32146;SDS011;32190;49.112;8.598;2022-11-20T18:49:36;0.50;;;0.50;;
32146;SDS011;32190;49.112;8.598;2022-11-20T18:55:26;1.00;;;0.50;;
32146;SDS011;32190;49.112;8.598;2022-11-20T19:01:17;1.00;;;0.60;;
32146;SDS011;32190;49.112;8.598;2022-11-20T19:07:08;0.40;;;0.40;;
32146;SDS011;32190;49.112;8.598;2022-11-20T19:13:01;1.05;;;0.60;;
32146;SDS011;32190;49.112;8.598;2022-11-20T19:18:51;1.75;;;0.60;;
32146;SDS011;32190;49.112;8.598;2022-11-20T19:24:42;0.50;;;0.50;;
32146;SDS011;32190;49.112;8.598;2022-11-20T19:30:33;0.60;;;0.60;;
32146;SDS011;32190;49.112;8.598;2022-11-20T19:42:54;0.50;;;0.50;;
32146;SDS011;32190;49.112;8.598;2022-11-20T19:48:45;1.50;;;0.43;;
32146;SDS011;32190;49.112;8.598;2022-11-20T19:54:36;0.50;;;0.50;;
32146;SDS011;32190;49.112;8.598;2022-11-20T20:00:27;0.40;;;0.40;;
32146;SDS011;32190;49.112;8.598;2022-11-20T20:06:23;1.20;;;0.50;;
32146;SDS011;32190;49.112;8.598;2022-11-20T20:12:24;0.55;;;0.50;;
32146;SDS011;32190;49.112;8.598;2022-11-20T20:18:23;0.55;;;0.55;;
32146;SDS011;32190;49.112;8.598;2022-11-20T20:24:14;0.68;;;0.68;;
32146;SDS011;32190;49.112;8.598;2022-11-20T20:30:05;0.60;;;0.60;;
32146;SDS011;32190;49.112;8.598;2022-11-20T20:42:23;0.65;;;0.50;;
32146;SDS011;32190;49.112;8.598;2022-11-20T20:48:35;0.50;;;0.45;;
32146;SDS011;32190;49.112;8.598;2022-11-20T20:54:40;0.68;;;0.47;;
32146;SDS011;32190;49.112;8.598;2022-11-20T21:00:41;2.42;;;0.50;;
32146;SDS011;32190;49.112;8.598;2022-11-20T21:06:32;0.93;;;0.45;;
32146;SDS011;32190;49.112;8.598;2022-11-20T21:12:22;0.60;;;0.60;;
32146;SDS011;32190;49.112;8.598;2022-11-20T21:18:13;0.60;;;0.50;;
32146;SDS011;32190;49.112;8.598;2022-11-20T21:36:21;0.57;;;0.57;;
32146;SDS011;32190;49.112;8.598;2022-11-20T21:42:13;0.50;;;0.50;;
32146;SDS011;32190;49.112;8.598;2022-11-20T21:48:04;0.47;;;0.40;;
32146;SDS011;32190;49.112;8.598;2022-11-20T21:53:55;1.85;;;0.60;;
32146;SDS011;32190;49.112;8.598;2022-11-20T21:59:46;0.60;;;0.60;;
32146;SDS011;32190;49.112;8.598;2022-11-20T22:05:36;0.50;;;0.50;;
32146;SDS011;32190;49.112;8.598;2022-11-20T22:11:27;0.43;;;0.40;;
32146;SDS011;32190;49.112;8.598;2022-11-20T22:17:18;0.30;;;0.30;;
32146;SDS011;32190;49.112;8.598;2022-11-20T22:23:28;0.80;;;0.50;;
32146;SDS011;32190;49.112;8.598;2022-11-20T22:59:21;0.52;;;0.40;;
32146;SDS011;32190;49.112;8.598;2022-11-20T23:05:11;1.20;;;0.70;;
32146;SDS011;32190;49.112;8.598;2022-11-20T23:11:03;0.35;;;0.35;;
32146;SDS011;32190;49.112;8.598;2022-11-20T23:16:59;1.00;;;0.57;;
32146;SDS011;32190;49.112;8.598;2022-11-20T23:22:50;0.35;;;0.35;;
32146;SDS011;32190;49.112;8.598;2022-11-20T23:28:40;0.50;;;0.45;;
32146;SDS011;32190;49.112;8.598;2022-11-20T23:34:32;0.45;;;0.45;;
32146;SDS011;32190;49.112;8.598;2022-11-20T23:40:22;0.47;;;0.47;;
32146;SDS011;32190;49.112;8.598;2022-11-20T23:46:13;2.70;;;0.30;;
32146;SDS011;32190;49.112;8.598;2022-11-20T23:52:03;0.50;;;0.50;;
32146;SDS011;32190;49.112;8.598;2022-11-20T23:57:54;1.10;;;0.60;;
